createdAt,value
2024-01-27T00:02:00.322Z,99403.27
2024-01-27T00:04:03.541Z,99401.55
2024-01-27T00:06:05.402Z,99419.40
2024-01-27T00:08:07.467Z,99429.35
2024-01-27T00:10:09.410Z,99438.58
2024-01-27T00:12:11.205Z,99447.34
2024-01-27T00:14:12.822Z,99454.91
2024-01-27T00:16:14.511Z,99460.94
2024-01-27T00:18:17.831Z,99477.83
2024-01-27T00:20:19.490Z,99493.13
2024-01-27T00:22:22.216Z,99493.13
2024-01-27T00:24:23.798Z,99514.30
2024-01-27T00:26:25.387Z,99516.96
2024-01-27T00:28:27.055Z,99518.78
2024-01-27T00:30:28.782Z,99527.86
2024-01-27T00:32:30.506Z,99532.59
2024-01-27T00:34:32.526Z,99529.59
2024-01-27T00:36:34.390Z,99539.54
2024-01-27T00:38:36.080Z,99537.92
2024-01-27T00:40:37.694Z,99538.95
2024-01-27T00:42:39.253Z,99546.94
2024-01-27T00:44:41.001Z,99544.46
2024-01-27T00:46:42.580Z,99542.83
2024-01-27T00:48:44.305Z,99549.94
2024-01-27T00:50:45.997Z,99556.63
2024-01-27T00:52:47.804Z,99561.95
2024-01-27T00:54:49.778Z,99565.40
2024-01-27T00:56:51.365Z,99577.11
2024-01-27T00:58:53.110Z,99584.64
2024-01-27T01:00:54.764Z,99595.56
2024-01-27T01:02:56.361Z,99591.06
2024-01-27T01:04:58.139Z,99591.80
2024-01-27T01:07:00.588Z,99594.38
2024-01-27T01:09:02.226Z,99598.27
2024-01-27T01:11:04.022Z,99602.41
2024-01-27T01:13:05.648Z,99599.65
2024-01-27T01:15:07.963Z,99597.33
2024-01-27T01:17:09.634Z,99603.70
2024-01-27T01:19:11.287Z,99609.27
2024-01-27T01:21:13.135Z,99607.92
2024-01-27T01:23:15.974Z,99607.80
2024-01-27T01:25:17.670Z,99612.77
2024-01-27T01:27:20.484Z,99619.67
2024-01-27T01:29:23.410Z,99625.55
2024-01-27T01:31:25.157Z,99624.69
2024-01-27T01:33:26.916Z,99626.97
2024-01-27T01:35:28.691Z,99631.22
2024-01-27T01:37:30.217Z,99637.09
2024-01-27T01:39:31.940Z,99635.94
2024-01-27T01:41:33.948Z,99642.63
2024-01-27T01:43:35.611Z,99647.38
2024-01-27T01:45:37.185Z,99651.94
2024-01-27T01:47:38.976Z,99656.71
2024-01-27T01:49:41.752Z,99654.71
2024-01-27T01:51:43.539Z,99654.71
2024-01-27T01:53:49.009Z,99648.30
2024-01-27T01:55:51.453Z,99649.56
2024-01-27T01:57:53.103Z,99651.66
2024-01-27T01:59:54.908Z,99653.86
2024-01-27T02:01:56.760Z,99662.14
2024-01-27T02:03:58.857Z,99663.23
2024-01-27T02:06:00.509Z,99666.48
2024-01-27T02:08:05.426Z,99665.95
2024-01-27T02:10:15.847Z,99666.95
2024-01-27T02:12:17.631Z,99670.41
2024-01-27T02:14:19.546Z,99670.33
2024-01-27T02:16:21.415Z,99665.70
2024-01-27T02:18:23.156Z,99666.71
2024-01-27T02:20:24.880Z,99663.17
2024-01-27T02:22:26.441Z,99663.35
2024-01-27T02:24:29.928Z,99665.05
2024-01-27T02:26:31.689Z,99668.72
2024-01-27T02:28:34.589Z,99667.38
2024-01-27T02:30:36.419Z,99669.52
2024-01-27T02:32:38.175Z,99666.11
2024-01-27T02:34:39.875Z,99667.79
2024-01-27T02:36:41.710Z,99673.67
2024-01-27T02:38:43.349Z,99673.45
2024-01-27T02:40:44.884Z,99673.98
2024-01-27T02:42:46.750Z,99682.20
2024-01-27T02:44:48.419Z,99680.85
2024-01-27T02:46:50.149Z,99679.45
2024-01-27T02:48:52.084Z,99680.96
2024-01-27T02:50:53.979Z,99684.56
2024-01-27T02:52:55.537Z,99679.97
2024-01-27T02:54:57.372Z,99687.28
2024-01-27T02:56:59.147Z,99682.86
2024-01-27T02:59:00.760Z,99688.80
2024-01-27T03:01:02.350Z,99690.38
2024-01-27T03:03:04.368Z,99687.38
2024-01-27T03:05:06.377Z,99689.40
2024-01-27T03:07:08.000Z,99695.38
2024-01-27T03:09:09.645Z,99693.08
2024-01-27T03:11:11.309Z,99698.66
2024-01-27T03:13:12.885Z,99704.48
2024-01-27T03:15:14.644Z,99709.54
2024-01-27T03:17:16.988Z,99713.69
2024-01-27T03:19:19.006Z,99709.20
2024-01-27T03:21:20.756Z,99709.77
2024-01-27T03:23:22.661Z,99705.95
2024-01-27T03:25:26.952Z,99713.06
2024-01-27T03:27:28.734Z,99715.41
2024-01-27T03:29:30.507Z,99719.37
2024-01-27T03:31:33.190Z,99725.14
2024-01-27T03:33:35.053Z,99715.13
2024-01-27T03:35:36.820Z,99727.49
2024-01-27T03:37:38.560Z,99729.70
2024-01-27T03:39:42.934Z,99732.09
2024-01-27T03:41:44.701Z,99728.23
2024-01-27T03:43:46.497Z,99732.20
2024-01-27T03:45:48.307Z,99734.50
2024-01-27T03:47:51.363Z,99736.80
2024-01-27T03:49:53.454Z,99740.64
2024-01-27T03:51:55.977Z,99741.27
2024-01-27T03:53:57.826Z,99740.79
2024-01-27T03:56:00.913Z,99739.06
2024-01-27T03:58:02.830Z,99742.04
2024-01-27T04:00:05.571Z,99743.79
2024-01-27T04:02:07.200Z,99747.41
2024-01-27T04:04:09.025Z,99752.80
2024-01-27T04:06:11.042Z,99752.23
2024-01-27T04:08:12.947Z,99762.99
2024-01-27T04:10:14.558Z,99759.02
2024-01-27T04:12:16.360Z,99766.52
2024-01-27T04:14:18.105Z,99773.68
2024-01-27T04:16:19.860Z,99787.55
2024-01-27T04:18:21.651Z,99789.11
2024-01-27T04:20:23.641Z,99797.72
2024-01-27T04:22:25.325Z,99794.95
2024-01-27T04:24:27.034Z,99775.70
2024-01-27T04:26:29.046Z,99774.52
2024-01-27T04:28:31.726Z,99771.40
2024-01-27T04:30:33.483Z,99776.73
2024-01-27T04:32:36.734Z,99778.75
2024-01-27T04:34:38.622Z,99775.91
2024-01-27T04:36:40.543Z,99782.88
2024-01-27T04:38:45.007Z,99786.87
2024-01-27T04:40:46.792Z,99793.49
2024-01-27T04:42:48.424Z,99796.36
2024-01-27T04:44:50.158Z,99804.95
2024-01-27T04:46:51.857Z,99804.85
2024-01-27T04:48:53.726Z,99803.48
2024-01-27T04:50:55.572Z,99804.29
2024-01-27T04:52:57.392Z,99801.85
2024-01-27T04:54:59.658Z,99802.19
2024-01-27T04:57:01.194Z,99802.13
2024-01-27T04:59:02.731Z,99806.48
2024-01-27T05:01:04.562Z,99803.34
2024-01-27T05:03:08.772Z,99808.38
2024-01-27T05:05:10.408Z,99808.84
2024-01-27T05:07:12.207Z,99802.25
2024-01-27T05:09:14.148Z,99804.88
2024-01-27T05:11:18.810Z,99814.34
2024-01-27T05:13:20.379Z,99811.42
2024-01-27T05:15:22.044Z,99819.66
2024-01-27T05:17:23.796Z,99828.81
2024-01-27T05:19:25.588Z,99834.82
2024-01-27T05:21:27.430Z,99845.72
2024-01-27T05:23:29.171Z,99839.42
2024-01-27T05:25:30.844Z,99842.55
2024-01-27T05:27:32.637Z,99848.92
2024-01-27T05:29:34.404Z,99846.77
2024-01-27T05:31:36.677Z,99849.02
2024-01-27T05:33:39.318Z,99845.15
2024-01-27T05:35:41.141Z,99849.56
2024-01-27T05:37:42.714Z,99846.17
2024-01-27T05:39:44.635Z,99846.11
2024-01-27T05:41:46.272Z,99846.23
2024-01-27T05:43:47.962Z,99848.91
2024-01-27T05:45:50.424Z,99849.96
2024-01-27T05:47:52.133Z,99849.55
2024-01-27T05:49:53.889Z,99855.29
2024-01-27T05:51:55.699Z,99849.74
2024-01-27T05:53:57.836Z,99850.11
2024-01-27T05:55:59.611Z,99850.14
2024-01-27T05:58:01.223Z,99844.90
2024-01-27T06:00:02.970Z,99848.25
2024-01-27T06:02:04.826Z,99853.95
2024-01-27T06:04:06.574Z,99850.29
2024-01-27T06:06:08.476Z,99846.55
2024-01-27T06:08:10.657Z,99852.66
2024-01-27T06:10:12.380Z,99851.39
2024-01-27T06:12:14.009Z,99846.55
2024-01-27T06:14:15.675Z,99852.22
2024-01-27T06:16:20.361Z,99850.73
2024-01-27T06:18:22.181Z,99854.35
2024-01-27T06:20:24.060Z,99855.31
2024-01-27T06:22:25.665Z,99863.89
2024-01-27T06:24:27.283Z,99857.38
2024-01-27T06:26:28.923Z,99857.85
2024-01-27T06:28:30.443Z,99867.83
2024-01-27T06:30:33.473Z,99865.86
2024-01-27T06:32:35.159Z,99867.41
2024-01-27T06:34:36.899Z,99863.77
2024-01-27T06:36:38.851Z,99871.46
2024-01-27T06:38:40.620Z,99869.06
2024-01-27T06:40:42.500Z,99871.68
2024-01-27T06:42:44.174Z,99874.42
2024-01-27T06:44:45.752Z,99870.14
2024-01-27T06:46:51.266Z,99873.70
2024-01-27T06:48:53.122Z,99872.63
2024-01-27T06:50:55.074Z,99874.52
2024-01-27T06:52:56.752Z,99870.89
2024-01-27T06:54:58.458Z,99868.69
2024-01-27T06:57:04.148Z,99876.83
2024-01-27T06:59:05.986Z,99877.89
2024-01-27T07:01:10.645Z,99880.85
2024-01-27T07:03:13.992Z,99883.86
2024-01-27T07:05:16.406Z,99886.51
2024-01-27T07:07:18.717Z,99898.30
2024-01-27T07:09:21.093Z,99901.55
2024-01-27T07:11:23.049Z,99909.33
2024-01-27T07:13:24.580Z,99907.55
2024-01-27T07:15:26.272Z,99910.77
2024-01-27T07:17:28.772Z,99905.23
2024-01-27T07:19:30.577Z,99909.42
2024-01-27T07:21:32.893Z,99911.19
2024-01-27T07:23:36.697Z,99908.75
2024-01-27T07:25:38.507Z,99912.41
2024-01-27T07:27:40.630Z,99914.41
2024-01-27T07:29:42.416Z,99915.00
2024-01-27T07:31:44.178Z,99919.06
2024-01-27T07:33:45.999Z,99905.90
2024-01-27T07:35:47.817Z,99906.30
2024-01-27T07:37:49.534Z,99907.04
2024-01-27T07:39:51.545Z,99905.93
2024-01-27T07:41:53.371Z,99904.75
2024-01-27T07:43:57.874Z,99901.16
2024-01-27T07:45:59.629Z,99899.02
2024-01-27T07:48:02.526Z,99896.54
2024-01-27T07:50:04.604Z,99901.23
2024-01-27T07:52:06.739Z,99898.39
2024-01-27T07:54:08.978Z,99896.93
2024-01-27T07:56:10.690Z,99889.05
2024-01-27T07:58:12.410Z,99886.24
2024-01-27T08:00:14.762Z,99879.79
2024-01-27T08:02:16.342Z,99879.55
2024-01-27T08:04:18.292Z,99875.55
2024-01-27T08:06:28.763Z,99889.59
2024-01-27T08:08:31.219Z,99894.36
2024-01-27T08:10:32.977Z,99892.69
2024-01-27T08:12:34.739Z,99888.73
2024-01-27T08:14:36.925Z,99885.70
2024-01-27T08:16:38.634Z,99885.66
2024-01-27T08:18:41.193Z,99884.92
2024-01-27T08:20:43.294Z,99887.27
2024-01-27T08:22:44.976Z,99884.73
2024-01-27T08:24:46.785Z,99884.33
2024-01-27T08:26:49.603Z,99892.25
2024-01-27T08:28:51.329Z,99884.76
2024-01-27T08:30:53.096Z,99892.95
2024-01-27T08:32:55.002Z,99899.35
2024-01-27T08:34:57.713Z,99897.94
2024-01-27T08:37:02.397Z,99897.86
2024-01-27T08:39:04.516Z,99907.52
2024-01-27T08:41:06.266Z,99908.44
2024-01-27T08:43:07.947Z,99902.42
2024-01-27T08:45:09.959Z,99908.15
2024-01-27T08:47:11.741Z,99913.56
2024-01-27T08:49:13.572Z,99916.86
2024-01-27T08:51:17.421Z,99916.55
2024-01-27T08:53:19.255Z,99918.03
2024-01-27T08:55:20.980Z,99913.42
2024-01-27T08:57:22.610Z,99919.21
2024-01-27T08:59:24.347Z,99916.14
2024-01-27T09:01:26.050Z,99924.77
2024-01-27T09:03:27.863Z,99919.91
2024-01-27T09:05:29.906Z,99915.91
2024-01-27T09:07:31.750Z,99919.77
2024-01-27T09:09:33.543Z,99930.61
2024-01-27T09:11:36.138Z,99928.69
2024-01-27T09:13:37.834Z,99928.64
2024-01-27T09:15:39.818Z,99928.20
2024-01-27T09:17:43.751Z,99933.33
2024-01-27T09:19:45.401Z,99922.92
2024-01-27T09:21:47.153Z,99929.80
2024-01-27T09:23:48.743Z,99940.95
2024-01-27T09:25:50.297Z,99938.75
2024-01-27T09:27:51.993Z,99941.61
2024-01-27T09:29:53.635Z,99951.87
2024-01-27T09:31:55.261Z,99958.33
2024-01-27T09:33:57.605Z,99958.99
2024-01-27T09:35:59.361Z,99956.38
2024-01-27T09:38:01.155Z,99962.34
2024-01-27T09:40:04.161Z,99958.14
2024-01-27T09:42:09.165Z,99971.86
2024-01-27T09:44:13.598Z,99972.75
2024-01-27T09:46:16.754Z,99970.60
2024-01-27T09:48:19.114Z,99964.71
2024-01-27T09:50:23.136Z,99969.71
2024-01-27T09:52:25.653Z,99970.00
2024-01-27T09:54:28.606Z,99970.91
2024-01-27T09:56:32.008Z,99966.85
2024-01-27T09:58:34.056Z,99967.61
2024-01-27T10:00:38.092Z,99967.11
2024-01-27T10:02:43.784Z,99969.80
2024-01-27T10:04:49.686Z,99973.62
2024-01-27T10:06:52.152Z,99968.73
2024-01-27T10:08:56.213Z,99972.41
2024-01-27T10:10:58.275Z,99977.40
2024-01-27T10:13:05.011Z,99977.92
2024-01-27T10:15:07.987Z,99980.95
2024-01-27T10:17:13.468Z,99982.38
2024-01-27T10:19:22.460Z,99979.04
2024-01-27T10:21:25.816Z,99976.45
2024-01-27T10:23:28.224Z,99977.16
2024-01-27T10:25:29.937Z,99980.65
2024-01-27T10:27:31.637Z,99978.61
2024-01-27T10:29:33.949Z,99977.08
2024-01-27T10:31:37.955Z,99978.17
2024-01-27T10:33:41.269Z,99977.19
2024-01-27T10:35:44.700Z,99977.77
2024-01-27T10:37:46.241Z,99981.44
2024-01-27T10:39:48.235Z,99983.14
2024-01-27T10:41:51.043Z,99975.09
2024-01-27T10:43:53.838Z,99978.45
2024-01-27T10:45:57.603Z,99981.06
2024-01-27T10:48:01.453Z,99985.73
2024-01-27T10:50:03.938Z,99983.48
2024-01-27T10:52:12.472Z,99979.27
2024-01-27T10:54:19.391Z,99972.01
2024-01-27T10:56:23.135Z,99983.80
2024-01-27T10:58:25.988Z,99982.14
2024-01-27T11:00:28.227Z,99980.66
2024-01-27T11:02:34.035Z,99983.64
2024-01-27T11:04:37.619Z,99987.80
2024-01-27T11:06:40.150Z,99978.89
2024-01-27T11:08:43.953Z,99980.15
2024-01-27T11:10:47.159Z,99977.56
2024-01-27T11:12:49.864Z,99974.84
2024-01-27T11:14:54.245Z,99976.15
2024-01-27T11:16:59.074Z,99980.75
2024-01-27T11:19:01.101Z,99981.77
2024-01-27T11:21:03.026Z,99980.58
2024-01-27T11:23:12.065Z,99990.89
2024-01-27T11:25:13.908Z,99981.63
2024-01-27T11:27:15.846Z,99981.34
2024-01-27T11:29:21.457Z,99983.33
2024-01-27T11:31:23.293Z,99983.55
2024-01-27T11:33:28.091Z,99990.56
2024-01-27T11:35:30.216Z,99992.14
2024-01-27T11:37:32.627Z,99990.05
2024-01-27T11:39:34.401Z,99990.45
2024-01-27T11:41:36.039Z,99994.65
2024-01-27T11:43:37.653Z,99994.06
2024-01-27T11:45:39.227Z,99993.83
2024-01-27T11:47:41.830Z,99993.16
2024-01-27T11:49:46.034Z,99990.92
2024-01-27T11:51:47.945Z,100001.27
2024-01-27T11:53:49.933Z,99997.00
2024-01-27T11:56:01.644Z,100004.64
2024-01-27T11:58:03.348Z,100006.02
2024-01-27T12:00:05.967Z,100005.32
2024-01-27T12:02:07.833Z,100008.53
2024-01-27T12:04:10.694Z,100012.38
2024-01-27T12:06:14.631Z,100006.95
2024-01-27T12:08:18.379Z,100007.81
2024-01-27T12:10:21.172Z,100009.10
2024-01-27T12:12:22.853Z,100010.08
2024-01-27T12:14:24.560Z,100011.74
2024-01-27T12:16:26.310Z,100011.25
2024-01-27T12:18:28.914Z,100010.20
2024-01-27T12:20:31.055Z,100013.90
2024-01-27T12:22:33.940Z,100020.70
2024-01-27T12:24:35.628Z,100021.36
2024-01-27T12:26:40.512Z,100025.52
2024-01-27T12:28:42.349Z,100027.27
2024-01-27T12:30:44.279Z,100030.81
2024-01-27T12:32:45.963Z,100028.11
2024-01-27T12:34:49.576Z,100036.59
2024-01-27T12:36:53.179Z,100033.98
2024-01-27T12:39:03.025Z,100042.08
2024-01-27T12:41:04.788Z,100038.69
2024-01-27T12:43:06.448Z,100041.85
2024-01-27T12:45:08.958Z,100043.34
2024-01-27T12:47:14.455Z,100042.77
2024-01-27T12:49:16.116Z,100046.86
2024-01-27T12:51:17.945Z,100049.16
2024-01-27T12:53:19.558Z,100055.27
2024-01-27T12:55:21.265Z,100059.48
2024-01-27T12:57:22.894Z,100062.33
2024-01-27T12:59:25.023Z,100060.59
2024-01-27T13:01:26.582Z,100063.34
2024-01-27T13:03:28.179Z,100069.17
2024-01-27T13:05:31.097Z,100066.35
2024-01-27T13:07:33.241Z,100070.56
2024-01-27T13:09:36.169Z,100071.98
2024-01-27T13:11:39.180Z,100076.71
2024-01-27T13:13:45.567Z,100077.58
2024-01-27T13:15:48.457Z,100079.86
2024-01-27T13:17:50.637Z,100083.67
2024-01-27T13:19:52.494Z,100081.55
2024-01-27T13:21:54.229Z,100083.99
2024-01-27T13:23:55.978Z,100087.42
2024-01-27T13:26:08.647Z,100088.87
2024-01-27T13:28:19.358Z,100094.34
2024-01-27T13:30:21.205Z,100101.33
2024-01-27T13:32:22.867Z,100105.14
2024-01-27T13:34:24.656Z,100106.44
2024-01-27T13:36:27.534Z,100111.27
2024-01-27T13:38:29.257Z,100108.20
2024-01-27T13:40:31.002Z,100102.98
2024-01-27T13:42:32.804Z,100110.52
2024-01-27T13:44:37.286Z,100112.77
2024-01-27T13:46:39.431Z,100119.55
2024-01-27T13:48:41.336Z,100121.07
2024-01-27T13:50:43.298Z,100124.20
2024-01-27T13:52:46.556Z,100124.60
2024-01-27T13:54:48.225Z,100127.48
2024-01-27T13:56:49.966Z,100128.40
2024-01-27T13:58:52.854Z,100135.14
2024-01-27T14:00:54.545Z,100134.55
2024-01-27T14:02:56.484Z,100141.58
2024-01-27T14:04:58.321Z,100146.92
2024-01-27T14:07:04.424Z,100145.13
2024-01-27T14:09:06.251Z,100145.39
2024-01-27T14:11:08.189Z,100145.89
2024-01-27T14:13:10.632Z,100151.95
2024-01-27T14:15:13.420Z,100155.15
2024-01-27T14:17:16.226Z,100156.65
2024-01-27T14:19:18.028Z,100162.33
2024-01-27T14:21:19.725Z,100170.39
2024-01-27T14:23:21.524Z,100173.26
2024-01-27T14:25:23.044Z,100179.16
2024-01-27T14:27:27.640Z,100175.39
2024-01-27T14:29:29.664Z,100178.45
2024-01-27T14:31:32.044Z,100179.34
2024-01-27T14:33:34.732Z,100180.54
2024-01-27T14:35:36.408Z,100179.84
2024-01-27T14:37:39.186Z,100185.64
2024-01-27T14:39:46.071Z,100189.55
2024-01-27T14:41:47.655Z,100194.21
2024-01-27T14:43:50.968Z,100198.98
2024-01-27T14:45:52.599Z,100203.54
2024-01-27T14:47:57.806Z,100205.86
2024-01-27T14:50:01.413Z,100211.31
2024-01-27T14:52:03.143Z,100213.05
2024-01-27T14:54:05.259Z,100213.60
2024-01-27T14:56:07.180Z,100220.29
2024-01-27T14:58:08.825Z,100224.66
2024-01-27T15:00:11.464Z,100224.77
2024-01-27T15:02:13.154Z,100222.23
2024-01-27T15:04:15.507Z,100230.20
2024-01-27T15:06:17.630Z,100234.41
2024-01-27T15:08:20.366Z,100237.66
2024-01-27T15:10:24.660Z,100242.45
2024-01-27T15:12:26.985Z,100249.77
2024-01-27T15:14:29.810Z,100254.02
2024-01-27T15:16:33.586Z,100256.55
2024-01-27T15:18:38.212Z,100257.99
2024-01-27T15:20:40.000Z,100264.90
2024-01-27T15:22:42.607Z,100268.17
2024-01-27T15:24:44.268Z,100272.46
2024-01-27T15:26:46.132Z,100276.21
2024-01-27T15:28:48.671Z,100280.61
2024-01-27T15:30:50.829Z,100282.27
2024-01-27T15:32:52.681Z,100287.48
2024-01-27T15:34:54.762Z,100294.27
2024-01-27T15:36:56.719Z,100299.06
2024-01-27T15:38:58.488Z,100302.23
2024-01-27T15:41:00.537Z,100303.16
2024-01-27T15:43:02.381Z,100307.71
2024-01-27T15:45:05.908Z,100308.45
2024-01-27T15:47:08.495Z,100310.58
2024-01-27T15:49:10.082Z,100321.82
2024-01-27T15:51:12.203Z,100322.66
2024-01-27T15:53:13.932Z,100323.55
2024-01-27T15:55:16.190Z,100328.63
2024-01-27T15:57:18.151Z,100331.23
2024-01-27T15:59:19.792Z,100334.35
2024-01-27T16:01:21.473Z,100336.99
2024-01-27T16:03:24.512Z,100342.75
2024-01-27T16:05:26.319Z,100344.71
2024-01-27T16:07:27.842Z,100344.67
2024-01-27T16:09:32.400Z,100351.40
2024-01-27T16:11:34.337Z,100354.95
2024-01-27T16:13:37.437Z,100358.64
2024-01-27T16:15:39.435Z,100361.44
2024-01-27T16:17:41.098Z,100363.91
2024-01-27T16:19:42.956Z,100366.20
2024-01-27T16:21:44.811Z,100369.05
2024-01-27T16:23:46.486Z,100369.09
2024-01-27T16:25:48.161Z,100367.45
2024-01-27T16:27:50.166Z,100373.30
2024-01-27T16:29:52.483Z,100377.85
2024-01-27T16:31:54.330Z,100382.16
2024-01-27T16:33:56.173Z,100384.41
2024-01-27T16:35:57.892Z,100389.05
2024-01-27T16:37:59.637Z,100388.45
2024-01-27T16:40:01.350Z,100391.42
2024-01-27T16:42:03.827Z,100395.23
2024-01-27T16:44:05.533Z,100397.16
2024-01-27T16:46:09.873Z,100400.51
2024-01-27T16:48:11.542Z,100403.02
2024-01-27T16:50:13.504Z,100408.98
2024-01-27T16:52:15.068Z,100413.77
2024-01-27T16:54:16.957Z,100418.05
2024-01-27T16:56:18.901Z,100420.23
2024-01-27T16:58:20.489Z,100422.05
2024-01-27T17:00:24.499Z,100430.00
2024-01-27T17:02:26.390Z,100430.54
2024-01-27T17:04:28.196Z,100436.13
2024-01-27T17:06:29.790Z,100440.88
2024-01-27T17:08:31.655Z,100440.79
2024-01-27T17:10:33.301Z,100445.67
2024-01-27T17:12:35.116Z,100450.19
2024-01-27T17:14:36.823Z,100452.69
2024-01-27T17:16:38.608Z,100458.45
2024-01-27T17:18:40.199Z,100463.72
2024-01-27T17:20:44.126Z,100464.77
2024-01-27T17:22:47.110Z,100469.41
2024-01-27T17:24:48.920Z,100473.00
2024-01-27T17:26:50.618Z,100472.44
2024-01-27T17:28:52.228Z,100477.50
2024-01-27T17:30:53.784Z,100480.42
2024-01-27T17:32:55.427Z,100479.99
2024-01-27T17:34:57.359Z,100482.09
2024-01-27T17:36:59.599Z,100482.20
2024-01-27T17:39:01.168Z,100482.60
2024-01-27T17:41:02.848Z,100488.58
2024-01-27T17:43:04.568Z,100492.97
2024-01-27T17:45:08.062Z,100497.04
2024-01-27T17:47:09.814Z,100498.16
2024-01-27T17:49:11.804Z,100504.23
2024-01-27T17:51:13.865Z,100501.58
2024-01-27T17:53:16.986Z,100505.54
2024-01-27T17:55:18.805Z,100506.33
2024-01-27T17:57:20.404Z,100511.83
2024-01-27T17:59:25.151Z,100515.94
2024-01-27T18:01:26.800Z,100519.85
2024-01-27T18:03:28.731Z,100519.37
2024-01-27T18:05:30.707Z,100523.02
2024-01-27T18:07:32.613Z,100524.95
2024-01-27T18:09:34.255Z,100522.44
2024-01-27T18:11:35.884Z,100521.36
2024-01-27T18:13:37.645Z,100529.95
2024-01-27T18:15:39.593Z,100529.53
2024-01-27T18:17:41.329Z,100533.67
2024-01-27T18:19:43.045Z,100537.52
2024-01-27T18:21:45.078Z,100537.84
2024-01-27T18:23:47.236Z,100543.90
2024-01-27T18:25:48.906Z,100545.80
2024-01-27T18:27:50.649Z,100547.63
2024-01-27T18:29:53.924Z,100551.46
2024-01-27T18:31:55.841Z,100550.70
2024-01-27T18:33:57.687Z,100551.72
2024-01-27T18:35:59.937Z,100552.44
2024-01-27T18:38:01.680Z,100560.58
2024-01-27T18:40:05.946Z,100561.42
2024-01-27T18:42:07.755Z,100564.46
2024-01-27T18:44:10.822Z,100563.65
2024-01-27T18:46:13.706Z,100574.00
2024-01-27T18:48:15.607Z,100582.71
2024-01-27T18:50:17.634Z,100582.63
2024-01-27T18:52:19.262Z,100584.53
2024-01-27T18:54:22.302Z,100590.15
2024-01-27T18:56:23.913Z,100590.21
2024-01-27T18:58:25.590Z,100592.95
2024-01-27T19:00:27.667Z,100595.59
2024-01-27T19:02:29.286Z,100593.27
2024-01-27T19:04:31.065Z,100597.70
2024-01-27T19:06:33.139Z,100597.63
2024-01-27T19:08:35.566Z,100601.37
2024-01-27T19:10:37.221Z,100597.55
2024-01-27T19:12:38.918Z,100604.52
2024-01-27T19:14:41.451Z,100604.70
2024-01-27T19:16:43.547Z,100606.89
2024-01-27T19:18:45.177Z,100603.73
2024-01-27T19:20:46.801Z,100606.81
2024-01-27T19:22:51.445Z,100615.65
2024-01-27T19:24:53.189Z,100617.25
2024-01-27T19:26:54.792Z,100622.48
2024-01-27T19:28:56.634Z,100627.41
2024-01-27T19:30:58.713Z,100634.20
2024-01-27T19:33:00.715Z,100635.45
2024-01-27T19:35:03.411Z,100638.22
2024-01-27T19:37:05.083Z,100639.74
2024-01-27T19:39:06.709Z,100644.21
2024-01-27T19:41:16.161Z,100646.54
2024-01-27T19:43:20.882Z,100650.08
2024-01-27T19:45:22.694Z,100652.27
2024-01-27T19:47:24.492Z,100653.44
2024-01-27T19:49:26.142Z,100659.33
2024-01-27T19:51:27.859Z,100661.73
2024-01-27T19:53:29.741Z,100665.88
2024-01-27T19:55:31.393Z,100667.09
2024-01-27T19:57:33.090Z,100669.91
2024-01-27T19:59:34.802Z,100671.85
2024-01-27T20:01:36.614Z,100671.92
2024-01-27T20:03:38.381Z,100678.41
2024-01-27T20:05:40.280Z,100680.73
2024-01-27T20:07:41.928Z,100689.58
2024-01-27T20:09:43.492Z,100691.27
2024-01-27T20:11:47.427Z,100694.55
2024-01-27T20:13:49.049Z,100694.55
2024-01-27T20:15:50.783Z,100701.77
2024-01-27T20:17:52.878Z,100707.38
2024-01-27T20:19:56.324Z,100710.15
2024-01-27T20:21:58.616Z,100712.39
2024-01-27T20:24:00.226Z,100718.81
2024-01-27T20:26:01.924Z,100723.85
2024-01-27T20:28:03.981Z,100724.61
2024-01-27T20:30:07.627Z,100727.78
2024-01-27T20:32:09.652Z,100730.77
2024-01-27T20:34:12.355Z,100733.30
2024-01-27T20:36:14.454Z,100736.67
2024-01-27T20:38:16.137Z,100735.49
2024-01-27T20:40:18.270Z,100738.83
2024-01-27T20:42:19.913Z,100739.02
2024-01-27T20:44:21.548Z,100740.71
2024-01-27T20:46:23.161Z,100747.99
2024-01-27T20:48:24.942Z,100750.59
2024-01-27T20:50:27.020Z,100751.77
2024-01-27T20:52:28.887Z,100755.30
2024-01-27T20:54:30.553Z,100757.77
2024-01-27T20:56:33.805Z,100763.96
2024-01-27T20:58:38.223Z,100766.95
2024-01-27T21:00:40.043Z,100767.29
2024-01-27T21:02:42.743Z,100770.40
2024-01-27T21:04:44.991Z,100771.21
2024-01-27T21:06:46.992Z,100776.52
2024-01-27T21:08:48.924Z,100775.62
2024-01-27T21:10:50.571Z,100783.79
2024-01-27T21:12:52.381Z,100785.84
2024-01-27T21:14:54.095Z,100786.61
2024-01-27T21:16:55.775Z,100789.25
2024-01-27T21:18:57.457Z,100793.48
2024-01-27T21:21:00.297Z,100793.54
2024-01-27T21:23:03.391Z,100795.84
2024-01-27T21:25:05.617Z,100798.68
2024-01-27T21:27:07.294Z,100800.09
2024-01-27T21:29:09.667Z,100802.98
2024-01-27T21:31:11.726Z,100809.10
2024-01-27T21:33:13.549Z,100810.63
2024-01-27T21:35:15.559Z,100813.48
2024-01-27T21:37:17.295Z,100813.09
2024-01-27T21:39:19.051Z,100817.52
2024-01-27T21:41:20.775Z,100823.81
2024-01-27T21:43:22.288Z,100822.64
2024-01-27T21:45:24.001Z,100825.81
2024-01-27T21:47:25.840Z,100827.42
2024-01-27T21:49:27.430Z,100829.02
2024-01-27T21:51:29.096Z,100826.86
2024-01-27T21:53:30.695Z,100832.48
2024-01-27T21:55:33.811Z,100836.44
2024-01-27T21:57:35.510Z,100836.84
2024-01-27T21:59:37.257Z,100838.98
2024-01-27T22:01:42.122Z,100841.08
2024-01-27T22:03:44.532Z,100843.16
2024-01-27T22:05:46.381Z,100848.31
2024-01-27T22:07:50.326Z,100849.40
2024-01-27T22:09:53.135Z,100850.20
2024-01-27T22:11:55.719Z,100853.27
2024-01-27T22:13:59.340Z,100854.64
2024-01-27T22:16:02.680Z,100852.17
2024-01-27T22:18:05.014Z,100858.98
2024-01-27T22:20:08.803Z,100860.17
2024-01-27T22:22:10.448Z,100864.71
2024-01-27T22:24:12.039Z,100867.77
2024-01-27T22:26:13.886Z,100869.76
2024-01-27T22:28:16.868Z,100873.54
2024-01-27T22:30:18.598Z,100880.91
2024-01-27T22:32:20.327Z,100879.89
2024-01-27T22:34:22.691Z,100884.75
2024-01-27T22:36:24.575Z,100882.22
2024-01-27T22:38:26.331Z,100883.36
2024-01-27T22:40:28.062Z,100879.97
2024-01-27T22:42:32.072Z,100883.73
2024-01-27T22:44:33.775Z,100887.95
2024-01-27T22:46:35.890Z,100889.27
2024-01-27T22:48:37.655Z,100894.48
2024-01-27T22:50:39.419Z,100899.54
2024-01-27T22:52:41.200Z,100896.82
2024-01-27T22:54:43.358Z,100898.77
2024-01-27T22:56:44.971Z,100897.90
2024-01-27T22:58:46.521Z,100900.36
2024-01-27T23:00:48.471Z,100903.77
2024-01-27T23:02:50.255Z,100901.61
2024-01-27T23:04:51.857Z,100905.94
2024-01-27T23:06:53.847Z,100906.40
2024-01-27T23:08:55.596Z,100904.80
2024-01-27T23:10:57.255Z,100907.54
2024-01-27T23:12:59.957Z,100906.19
2024-01-27T23:15:01.645Z,100904.52
2024-01-27T23:17:03.225Z,100908.91
2024-01-27T23:19:05.300Z,100915.35
2024-01-27T23:21:07.307Z,100913.59
2024-01-27T23:23:09.007Z,100919.58
2024-01-27T23:25:10.780Z,100919.80
2024-01-27T23:27:12.474Z,100920.69
2024-01-27T23:29:14.196Z,100921.98
2024-01-27T23:31:15.940Z,100921.98
2024-01-27T23:33:19.522Z,100927.54
2024-01-27T23:35:23.591Z,100930.06
2024-01-27T23:37:25.495Z,100934.34